createdAt,value
2018-03-27T00:02:05.343Z,31.17
2018-03-27T00:04:33.587Z,32.57
2018-03-27T00:07:01.045Z,33.43
2018-03-27T00:09:28.483Z,30.37
2018-03-27T00:11:55.951Z,36.80
2018-03-27T00:14:23.399Z,40.67
2018-03-27T00:16:50.944Z,31.80
2018-03-27T00:19:18.387Z,33.57
2018-03-27T00:21:45.844Z,34.57
2018-03-27T00:24:13.314Z,37.13
2018-03-27T00:26:52.633Z,35.50
2018-03-27T00:29:31.970Z,34.30
2018-03-27T00:32:11.301Z,32.90
2018-03-27T00:34:50.724Z,31.60
2018-03-27T00:37:30.835Z,36.33
2018-03-27T00:40:10.196Z,35.57
2018-03-27T00:42:56.383Z,31.33
2018-03-27T00:45:23.828Z,37.73
2018-03-27T00:47:51.302Z,40.10
2018-03-27T00:50:18.766Z,31.10
2018-03-27T00:52:46.998Z,34.17
2018-03-27T00:55:14.452Z,31.73
2018-03-27T00:57:41.883Z,32.13
2018-03-27T01:00:09.371Z,37.50
2018-03-27T01:02:36.830Z,30.73
2018-03-27T01:05:10.158Z,39.73
2018-03-27T01:07:37.627Z,39.57
2018-03-27T01:10:05.844Z,34.63
2018-03-27T01:12:33.299Z,34.30
2018-03-27T01:15:00.786Z,40.20
2018-03-27T01:17:28.256Z,38.73
2018-03-27T01:19:55.729Z,35.10
2018-03-27T01:22:23.207Z,35.47
2018-03-27T01:24:50.659Z,38.87
2018-03-27T01:27:18.855Z,39.37
2018-03-27T01:29:46.368Z,34.97
2018-03-27T01:32:13.801Z,35.17
2018-03-27T01:34:41.264Z,36.10
2018-03-27T01:37:08.699Z,38.43
2018-03-27T01:39:36.196Z,33.03
2018-03-27T01:42:03.661Z,41.77
2018-03-27T01:44:31.136Z,39.77
2018-03-27T01:46:58.572Z,34.40
2018-03-27T01:49:26.816Z,32.50
2018-03-27T01:51:54.260Z,46.27
2018-03-27T01:54:21.725Z,39.03
2018-03-27T01:56:49.193Z,39.40
2018-03-27T01:59:16.667Z,28.40
2018-03-27T02:01:44.122Z,34.67
2018-03-27T02:04:11.582Z,44.17
2018-03-27T02:06:39.058Z,38.90
2018-03-27T02:09:07.271Z,38.77
2018-03-27T02:11:40.524Z,46.03
2018-03-27T02:14:14.323Z,40.07
2018-03-27T02:16:47.546Z,40.77
2018-03-27T02:19:20.633Z,40.33
2018-03-27T02:21:47.593Z,39.70
2018-03-27T02:24:27.855Z,41.30
2018-03-27T02:26:55.310Z,42.70
2018-03-27T02:29:22.776Z,40.43
2018-03-27T02:31:50.218Z,42.07
2018-03-27T02:34:17.682Z,43.77
2018-03-27T02:36:45.156Z,37.07
2018-03-27T02:39:12.633Z,47.77
2018-03-27T02:41:40.072Z,41.40
2018-03-27T02:44:08.992Z,42.40
2018-03-27T02:46:36.473Z,38.00
2018-03-27T02:49:04.686Z,41.53
2018-03-27T02:51:32.166Z,44.00
2018-03-27T02:53:59.615Z,42.87
2018-03-27T02:56:27.076Z,45.03
2018-03-27T02:58:54.547Z,44.40
2018-03-27T03:01:21.992Z,43.47
2018-03-27T03:03:49.480Z,40.80
2018-03-27T03:06:17.694Z,43.80
2018-03-27T03:08:45.173Z,46.37
2018-03-27T03:11:12.663Z,46.03
2018-03-27T03:13:40.923Z,44.37
2018-03-27T03:16:08.388Z,50.43
2018-03-27T03:18:35.842Z,52.70
2018-03-27T03:21:03.308Z,44.03
2018-03-27T03:23:30.769Z,46.20
2018-03-27T03:25:58.995Z,46.57
2018-03-27T03:28:26.455Z,43.23
2018-03-27T03:30:53.948Z,43.23
2018-03-27T03:33:21.398Z,44.60
2018-03-27T03:35:48.841Z,47.70
2018-03-27T03:38:16.317Z,41.37
2018-03-27T03:40:43.791Z,44.43
2018-03-27T03:43:12.030Z,48.30
2018-03-27T03:45:39.479Z,53.57
2018-03-27T03:48:06.946Z,49.83
2018-03-27T03:50:34.403Z,43.73
2018-03-27T03:53:01.863Z,39.63
2018-03-27T03:55:29.319Z,46.43
2018-03-27T03:57:56.825Z,53.80
2018-03-27T04:00:24.294Z,58.00
2018-03-27T04:02:51.753Z,50.23
2018-03-27T04:05:19.206Z,50.50
2018-03-27T04:07:46.675Z,44.07
2018-03-27T04:10:14.168Z,48.03
2018-03-27T04:12:41.616Z,50.07
2018-03-27T04:15:09.065Z,51.97
2018-03-27T04:17:36.632Z,54.27
2018-03-27T04:20:04.088Z,53.20
2018-03-27T04:22:31.546Z,44.47
2018-03-27T04:24:59.016Z,48.97
2018-03-27T04:27:26.475Z,50.90
2018-03-27T04:29:53.941Z,48.43
2018-03-27T04:32:21.431Z,53.00
2018-03-27T04:34:48.875Z,57.03
2018-03-27T04:37:17.087Z,44.67
2018-03-27T04:39:44.588Z,49.63
2018-03-27T04:42:12.023Z,47.77
2018-03-27T04:44:39.504Z,51.97
2018-03-27T04:47:07.359Z,52.30
2018-03-27T04:49:34.817Z,48.40
2018-03-27T04:52:02.307Z,51.93
2018-03-27T04:54:30.530Z,45.67
2018-03-27T04:56:57.980Z,53.70
2018-03-27T04:59:25.463Z,49.63
2018-03-27T05:01:52.930Z,46.80
2018-03-27T05:04:21.189Z,55.80
2018-03-27T05:06:48.664Z,54.37
2018-03-27T05:09:16.122Z,56.70
2018-03-27T05:11:44.735Z,53.80
2018-03-27T05:14:12.166Z,54.93
2018-03-27T05:16:40.412Z,50.97
2018-03-27T05:19:07.884Z,62.30
2018-03-27T05:21:35.361Z,47.03
2018-03-27T05:24:03.582Z,55.00
2018-03-27T05:26:31.113Z,48.97
2018-03-27T05:28:58.499Z,51.97
2018-03-27T05:31:26.356Z,56.67
2018-03-27T05:33:53.814Z,46.83
2018-03-27T05:36:21.275Z,57.93
2018-03-27T05:38:48.824Z,48.10
2018-03-27T05:41:16.285Z,50.90
2018-03-27T05:43:43.752Z,57.30
2018-03-27T05:46:11.212Z,52.73
2018-03-27T05:48:38.687Z,55.57
2018-03-27T05:51:06.135Z,51.87
2018-03-27T05:53:33.597Z,54.47
2018-03-27T05:56:01.088Z,38.30
2018-03-27T05:58:28.549Z,56.83
2018-03-27T06:00:56.788Z,52.83
2018-03-27T06:03:24.247Z,52.07
2018-03-27T06:05:51.735Z,48.00
2018-03-27T06:08:19.945Z,47.93
2018-03-27T06:10:47.391Z,42.23
2018-03-27T06:13:14.847Z,37.60
2018-03-27T06:15:42.314Z,40.50
2018-03-27T06:18:09.768Z,49.57
2018-03-27T06:20:37.238Z,44.43
2018-03-27T06:23:04.713Z,34.30
2018-03-27T06:25:32.156Z,44.53
2018-03-27T06:27:59.717Z,39.77
2018-03-27T06:30:27.186Z,41.03
2018-03-27T06:32:54.647Z,45.57
2018-03-27T06:35:22.127Z,38.13
2018-03-27T06:37:49.582Z,42.70
2018-03-27T06:40:17.027Z,39.40
2018-03-27T06:42:44.513Z,40.00
2018-03-27T06:45:12.732Z,38.30
2018-03-27T06:47:40.223Z,42.77
2018-03-27T06:50:07.640Z,36.97
2018-03-27T06:52:35.113Z,41.77
2018-03-27T06:55:02.552Z,35.43
2018-03-27T06:57:29.990Z,38.33
2018-03-27T06:59:57.469Z,39.73
2018-03-27T07:02:24.920Z,41.27
2018-03-27T07:04:52.363Z,38.73
2018-03-27T07:07:19.848Z,43.90
2018-03-27T07:09:47.329Z,40.13
2018-03-27T07:12:14.792Z,37.70
2018-03-27T07:14:42.273Z,42.63
2018-03-27T07:17:09.762Z,39.30
2018-03-27T07:19:37.270Z,42.07
2018-03-27T07:22:04.669Z,41.20
2018-03-27T07:24:32.136Z,41.87
2018-03-27T07:26:59.625Z,38.30
2018-03-27T07:29:27.053Z,39.07
2018-03-27T07:31:54.531Z,43.43
2018-03-27T07:34:22.004Z,46.67
2018-03-27T07:36:49.468Z,34.60
2018-03-27T07:39:16.919Z,40.67
2018-03-27T07:41:44.406Z,34.33
2018-03-27T07:44:12.623Z,34.43
2018-03-27T07:46:40.190Z,35.63
2018-03-27T07:49:07.640Z,36.30
2018-03-27T07:51:35.104Z,33.33
2018-03-27T07:54:02.568Z,34.40
2018-03-27T07:56:30.044Z,28.93
2018-03-27T07:58:58.273Z,31.87
2018-03-27T08:01:25.721Z,40.83
2018-03-27T08:03:53.198Z,35.30
2018-03-27T08:06:20.653Z,31.10
2018-03-27T08:08:48.119Z,29.30
2018-03-27T08:11:15.606Z,28.80
2018-03-27T08:13:43.055Z,28.73
2018-03-27T08:16:10.499Z,24.80
2018-03-27T08:18:37.955Z,26.23
2018-03-27T08:21:05.407Z,27.17
2018-03-27T08:23:32.945Z,23.60
2018-03-27T08:28:34.230Z,20.40
2018-03-27T08:31:01.703Z,23.00
2018-03-27T08:33:29.157Z,20.67
2018-03-27T08:35:56.616Z,20.23
2018-03-27T08:38:24.097Z,18.23
2018-03-27T08:40:52.323Z,18.50
2018-03-27T08:43:19.829Z,20.80
2018-03-27T08:45:47.251Z,24.23
2018-03-27T08:48:14.720Z,20.20
2018-03-27T08:50:42.178Z,21.40
2018-03-27T08:53:09.632Z,23.17
2018-03-27T08:55:37.115Z,18.23
2018-03-27T08:58:05.329Z,19.80
2018-03-27T09:00:32.792Z,20.37
2018-03-27T09:03:00.255Z,21.13
2018-03-27T09:05:27.761Z,20.37
2018-03-27T09:07:55.219Z,20.80
2018-03-27T09:10:23.440Z,25.67
2018-03-27T09:12:50.922Z,18.43
2018-03-27T09:15:18.444Z,21.13
2018-03-27T09:17:45.882Z,24.90
2018-03-27T09:20:14.083Z,25.07
2018-03-27T09:22:41.558Z,19.97
2018-03-27T09:25:09.019Z,22.17
2018-03-27T09:27:36.555Z,19.83
2018-03-27T09:30:04.011Z,20.37
2018-03-27T09:32:31.453Z,40.93
2018-03-27T09:34:59.038Z,24.30
2018-03-27T09:37:26.523Z,24.10
2018-03-27T09:39:53.975Z,23.57
2018-03-27T09:42:21.428Z,25.87
2018-03-27T09:44:49.673Z,24.17
2018-03-27T09:47:17.159Z,24.77
2018-03-27T09:49:44.599Z,23.10
2018-03-27T09:52:12.053Z,23.13
2018-03-27T09:54:39.958Z,22.43
2018-03-27T09:57:07.396Z,21.33
2018-03-27T09:59:34.873Z,20.37
2018-03-27T10:02:02.350Z,18.47
2018-03-27T10:04:30.562Z,20.90
2018-03-27T10:06:58.117Z,18.90
2018-03-27T10:09:25.576Z,20.80
2018-03-27T10:11:53.016Z,24.13
2018-03-27T10:14:20.483Z,21.90
2018-03-27T10:16:47.961Z,20.63
2018-03-27T10:19:21.367Z,18.50
2018-03-27T10:21:48.832Z,18.03
2018-03-27T10:24:16.310Z,30.30
2018-03-27T10:26:43.756Z,7.90
2018-03-27T10:29:11.195Z,8.17
2018-03-27T10:31:38.673Z,9.67
2018-03-27T10:34:06.116Z,8.97
2018-03-27T10:36:33.572Z,9.60
2018-03-27T10:39:01.033Z,5.40
2018-03-27T10:41:28.467Z,4.87
2018-03-27T10:43:55.934Z,9.33
2018-03-27T10:46:23.389Z,7.50
2018-03-27T10:48:50.835Z,7.70
2018-03-27T10:51:18.298Z,9.63
2018-03-27T10:53:45.745Z,10.60
2018-03-27T10:56:13.203Z,14.63
2018-03-27T10:58:40.646Z,10.03
2018-03-27T11:01:08.250Z,9.80
2018-03-27T11:03:35.710Z,8.33
2018-03-27T11:06:03.156Z,7.87
2018-03-27T11:08:30.613Z,8.33
2018-03-27T11:10:58.081Z,6.27
2018-03-27T11:13:25.524Z,6.23
2018-03-27T11:15:52.964Z,4.80
2018-03-27T11:18:20.434Z,7.83
2018-03-27T11:20:47.896Z,8.00
2018-03-27T11:23:16.191Z,6.60
2018-03-27T11:25:43.622Z,8.63
2018-03-27T11:28:11.099Z,6.40
2018-03-27T11:30:38.542Z,6.87
2018-03-27T11:33:05.995Z,10.47
2018-03-27T11:35:33.448Z,9.77
2018-03-27T11:40:34.681Z,6.30
2018-03-27T11:43:02.150Z,7.53
2018-03-27T11:45:29.708Z,7.93
2018-03-27T11:47:57.127Z,8.90
2018-03-27T11:50:25.368Z,7.17
2018-03-27T11:52:52.808Z,9.30
2018-03-27T11:55:20.299Z,9.10
2018-03-27T11:57:47.759Z,7.50
2018-03-27T12:00:15.195Z,7.17
2018-03-27T12:02:42.644Z,7.83
2018-03-27T12:05:10.107Z,8.40
2018-03-27T12:07:37.569Z,7.20
2018-03-27T12:10:05.009Z,8.40
2018-03-27T12:12:32.481Z,10.13
2018-03-27T12:14:59.929Z,6.97
2018-03-27T12:17:27.396Z,9.93
2018-03-27T12:19:54.840Z,10.83
2018-03-27T12:22:22.312Z,7.17
2018-03-27T12:24:49.779Z,7.90
2018-03-27T12:27:18.887Z,8.50
2018-03-27T12:29:46.320Z,7.57
2018-03-27T12:32:13.846Z,9.03
2018-03-27T12:34:41.300Z,10.00
2018-03-27T12:37:08.815Z,9.60
2018-03-27T12:39:36.259Z,8.60
2018-03-27T12:42:03.775Z,13.00
2018-03-27T12:44:31.231Z,7.20
2018-03-27T12:46:58.683Z,7.43
2018-03-27T12:49:26.140Z,7.13
2018-03-27T12:51:53.705Z,10.83
2018-03-27T12:54:21.164Z,8.37
2018-03-27T12:56:48.615Z,12.10
2018-03-27T12:59:16.070Z,8.67
2018-03-27T13:01:43.519Z,10.27
2018-03-27T13:04:11.741Z,6.87
2018-03-27T13:06:39.184Z,8.23
2018-03-27T13:09:06.660Z,11.60
2018-03-27T13:11:34.103Z,10.07
2018-03-27T13:14:01.548Z,8.20
2018-03-27T13:16:29.003Z,11.20
2018-03-27T13:18:56.471Z,8.50
2018-03-27T13:21:23.935Z,8.27
2018-03-27T13:23:51.388Z,15.83
2018-03-27T13:26:18.884Z,9.47
2018-03-27T13:28:47.086Z,11.47
2018-03-27T13:31:14.551Z,12.80
2018-03-27T13:33:42.008Z,7.23
2018-03-27T13:36:09.461Z,8.03
2018-03-27T13:38:36.927Z,10.33
2018-03-27T13:41:04.413Z,11.07
2018-03-27T13:43:31.851Z,8.17
2018-03-27T13:45:59.326Z,10.50
2018-03-27T13:48:26.771Z,16.83
2018-03-27T13:50:54.250Z,10.30
2018-03-27T13:53:21.689Z,9.37
2018-03-27T13:55:49.150Z,12.23
2018-03-27T13:58:16.607Z,10.43
2018-03-27T14:00:44.057Z,15.10
2018-03-27T14:03:11.517Z,11.87
2018-03-27T14:05:38.953Z,20.53
2018-03-27T14:08:06.442Z,13.10
2018-03-27T14:10:33.885Z,13.77
2018-03-27T14:13:01.421Z,14.10
2018-03-27T14:15:28.848Z,19.07
2018-03-27T14:17:57.070Z,14.73
2018-03-27T14:20:24.509Z,18.30
2018-03-27T14:22:51.964Z,12.53
2018-03-27T14:25:19.416Z,13.07
2018-03-27T14:27:46.858Z,12.43
2018-03-27T14:30:15.092Z,11.60
2018-03-27T14:32:42.547Z,17.57
2018-03-27T14:35:09.998Z,13.60
2018-03-27T14:37:37.450Z,15.70
2018-03-27T14:40:05.698Z,17.33
2018-03-27T14:42:33.157Z,16.67
2018-03-27T14:45:00.616Z,15.60
2018-03-27T14:47:28.091Z,11.93
2018-03-27T14:49:55.526Z,15.40
2018-03-27T14:52:22.997Z,15.70
2018-03-27T14:54:50.455Z,12.40
2018-03-27T14:57:17.927Z,14.00
2018-03-27T14:59:45.384Z,20.60
2018-03-27T15:02:12.844Z,15.47
2018-03-27T15:04:40.308Z,17.87
2018-03-27T15:07:07.768Z,15.33
2018-03-27T15:09:35.235Z,19.57
2018-03-27T15:12:02.667Z,25.23
2018-03-27T15:14:30.146Z,15.37
2018-03-27T15:16:57.574Z,17.00
2018-03-27T15:19:25.036Z,16.33
2018-03-27T15:21:52.492Z,19.00
2018-03-27T15:24:19.956Z,21.40
2018-03-27T15:26:47.412Z,15.47
2018-03-27T15:29:14.873Z,20.70
2018-03-27T15:31:42.349Z,17.63
2018-03-27T15:34:09.785Z,19.57
2018-03-27T15:36:37.263Z,15.93
2018-03-27T15:39:05.628Z,16.43
2018-03-27T15:41:33.085Z,18.17
2018-03-27T15:44:00.552Z,19.03
2018-03-27T15:46:28.000Z,19.50
2018-03-27T15:48:55.559Z,26.47
2018-03-27T15:51:23.020Z,17.67
2018-03-27T15:53:50.479Z,20.70
2018-03-27T15:56:17.919Z,20.47
2018-03-27T15:58:45.449Z,23.40
2018-03-27T16:01:12.905Z,19.10
2018-03-27T16:03:40.365Z,19.80
2018-03-27T16:06:07.830Z,21.03
2018-03-27T16:08:35.316Z,18.87
2018-03-27T16:11:02.815Z,19.93
2018-03-27T16:13:30.292Z,22.37
2018-03-27T16:15:58.517Z,21.30
2018-03-27T16:18:26.387Z,23.20
2018-03-27T16:20:53.850Z,23.53
2018-03-27T16:23:21.961Z,22.13
2018-03-27T16:25:49.444Z,22.40
2018-03-27T16:28:16.894Z,21.00
2018-03-27T16:30:44.362Z,25.50
2018-03-27T16:33:11.820Z,22.17
2018-03-27T16:35:39.358Z,27.97
2018-03-27T16:38:06.799Z,22.60
2018-03-27T16:40:34.280Z,22.87
2018-03-27T16:43:01.725Z,26.57
2018-03-27T16:45:29.202Z,26.47
2018-03-27T16:47:57.426Z,21.83
2018-03-27T16:50:25.730Z,24.87
2018-03-27T16:52:53.167Z,19.60
2018-03-27T16:55:20.604Z,25.00
2018-03-27T16:57:48.847Z,19.50
2018-03-27T17:00:16.308Z,20.90
2018-03-27T17:02:43.752Z,20.30
2018-03-27T17:05:11.295Z,22.53
2018-03-27T17:07:38.762Z,19.80
2018-03-27T17:10:06.231Z,20.50
2018-03-27T17:12:33.691Z,20.50
2018-03-27T17:15:06.994Z,17.20
2018-03-27T17:17:34.514Z,22.37
2018-03-27T17:20:01.939Z,26.97
2018-03-27T17:22:30.164Z,23.50
2018-03-27T17:24:57.682Z,18.80
2018-03-27T17:27:25.911Z,18.03
2018-03-27T17:29:53.347Z,20.90
2018-03-27T17:32:20.824Z,21.13
2018-03-27T17:34:48.283Z,22.17
2018-03-27T17:37:15.810Z,19.73
2018-03-27T17:39:43.355Z,17.33
2018-03-27T17:42:10.828Z,20.07
2018-03-27T17:44:38.320Z,18.37
2018-03-27T17:47:06.558Z,24.53
2018-03-27T17:49:34.117Z,19.97
2018-03-27T17:52:01.589Z,22.43
2018-03-27T17:54:29.035Z,20.33
2018-03-27T17:56:56.484Z,18.70
2018-03-27T17:59:23.971Z,20.83
2018-03-27T18:01:51.509Z,19.10
2018-03-27T18:04:18.986Z,23.53
2018-03-27T18:06:46.435Z,21.50
2018-03-27T18:09:15.108Z,27.00
2018-03-27T18:11:42.588Z,24.23
2018-03-27T18:14:10.054Z,25.40
2018-03-27T18:16:37.507Z,24.90
2018-03-27T18:19:04.977Z,23.23
2018-03-27T18:21:32.422Z,20.73
2018-03-27T18:23:59.943Z,26.87
2018-03-27T18:26:27.387Z,25.27
2018-03-27T18:28:54.839Z,23.13
2018-03-27T18:31:23.054Z,20.03
2018-03-27T18:33:51.267Z,23.50
2018-03-27T18:36:18.743Z,30.23
2018-03-27T18:38:46.967Z,20.23
2018-03-27T18:41:14.446Z,27.00
2018-03-27T18:43:41.876Z,25.97
2018-03-27T18:46:09.339Z,28.80
2018-03-27T18:48:36.806Z,24.40
2018-03-27T18:51:04.244Z,26.13
2018-03-27T18:53:31.707Z,26.20
2018-03-27T18:55:59.158Z,22.53
2018-03-27T18:58:26.597Z,27.73
2018-03-27T19:00:54.059Z,28.03
2018-03-27T19:03:21.535Z,33.50
2018-03-27T19:05:49.012Z,19.80
2018-03-27T19:08:16.459Z,23.60
2018-03-27T19:10:43.939Z,25.87
2018-03-27T19:13:11.399Z,24.97
2018-03-27T19:15:38.867Z,25.27
2018-03-27T19:18:07.077Z,27.07
2018-03-27T19:20:34.527Z,27.33
2018-03-27T19:23:01.998Z,26.87
2018-03-27T19:25:30.247Z,27.63
2018-03-27T19:27:58.476Z,29.23
2018-03-27T19:30:25.961Z,28.20
2018-03-27T19:32:54.187Z,26.03
2018-03-27T19:35:21.643Z,26.20
2018-03-27T19:37:49.116Z,26.87
2018-03-27T19:40:16.565Z,26.97
2018-03-27T19:42:43.999Z,24.40
2018-03-27T19:45:11.475Z,25.67
2018-03-27T19:47:38.922Z,27.97
2018-03-27T19:50:06.402Z,25.90
2018-03-27T19:52:33.872Z,27.93
2018-03-27T19:55:01.318Z,29.17
2018-03-27T19:57:28.806Z,28.70
2018-03-27T19:59:57.042Z,31.00
2018-03-27T20:02:24.516Z,23.47
2018-03-27T20:04:52.035Z,27.13
2018-03-27T20:07:19.511Z,30.13
2018-03-27T20:09:46.982Z,25.60
2018-03-27T20:12:14.425Z,26.70
2018-03-27T20:14:41.887Z,30.30
2018-03-27T20:17:09.334Z,24.00
2018-03-27T20:19:36.816Z,31.43
2018-03-27T20:22:04.273Z,23.77
2018-03-27T20:24:31.729Z,27.87
2018-03-27T20:26:59.192Z,31.50
2018-03-27T20:29:26.658Z,28.53
2018-03-27T20:31:54.123Z,35.80
2018-03-27T20:34:21.692Z,29.00
2018-03-27T20:36:49.132Z,30.37
2018-03-27T20:39:16.598Z,33.57
2018-03-27T20:41:44.834Z,35.40
2018-03-27T20:44:12.287Z,27.40
2018-03-27T20:46:39.768Z,29.97
2018-03-27T20:49:07.228Z,30.30
2018-03-27T20:51:34.667Z,27.30
2018-03-27T20:54:02.116Z,31.87
2018-03-27T20:56:30.762Z,30.90
2018-03-27T20:58:58.242Z,34.30
2018-03-27T21:01:26.516Z,33.10
2018-03-27T21:03:53.971Z,34.33
2018-03-27T21:06:21.409Z,30.67
2018-03-27T21:08:48.891Z,37.77
2018-03-27T21:11:16.339Z,35.17
2018-03-27T21:13:43.792Z,43.97
2018-03-27T21:16:11.252Z,37.97
2018-03-27T21:18:38.712Z,38.47
2018-03-27T21:21:06.170Z,38.93
2018-03-27T21:23:33.610Z,40.03
2018-03-27T21:26:01.068Z,36.17
2018-03-27T21:28:28.503Z,40.67
2018-03-27T21:30:56.724Z,40.63
2018-03-27T21:33:24.175Z,40.70
2018-03-27T21:35:51.688Z,36.50
2018-03-27T21:38:19.121Z,42.90
2018-03-27T21:40:46.583Z,41.23
2018-03-27T21:43:14.035Z,38.13
2018-03-27T21:45:41.479Z,37.17
2018-03-27T21:48:08.964Z,39.43
2018-03-27T21:53:10.279Z,42.00
2018-03-27T21:55:38.034Z,40.43
2018-03-27T21:58:05.533Z,44.20
2018-03-27T22:00:32.964Z,38.67
2018-03-27T22:03:00.422Z,45.00
2018-03-27T22:05:27.883Z,54.17
2018-03-27T22:07:55.345Z,46.07
2018-03-27T22:10:22.798Z,50.73
2018-03-27T22:12:50.285Z,46.83
2018-03-27T22:15:17.740Z,51.30
2018-03-27T22:17:45.195Z,45.67
2018-03-27T22:20:12.648Z,61.10
2018-03-27T22:22:41.592Z,50.40
2018-03-27T22:25:09.047Z,50.10
2018-03-27T22:27:36.529Z,58.70
2018-03-27T22:30:03.970Z,53.20
2018-03-27T22:32:31.410Z,51.67
2018-03-27T22:34:58.897Z,54.47
2018-03-27T22:37:26.354Z,55.43
2018-03-27T22:39:53.835Z,58.37
2018-03-27T22:42:21.279Z,54.87
2018-03-27T22:44:48.827Z,50.23
2018-03-27T22:47:16.332Z,54.20
2018-03-27T22:49:43.792Z,57.60
2018-03-27T22:52:12.029Z,51.83
2018-03-27T22:54:39.570Z,50.33
2018-03-27T22:57:07.060Z,55.07
2018-03-27T22:59:35.282Z,60.73
2018-03-27T23:02:02.832Z,54.43
2018-03-27T23:04:31.064Z,49.00
2018-03-27T23:06:58.518Z,47.60
2018-03-27T23:09:26.026Z,58.60
2018-03-27T23:11:53.438Z,55.30
2018-03-27T23:14:21.156Z,52.47
2018-03-27T23:16:48.658Z,53.03
2018-03-27T23:19:16.103Z,51.87
2018-03-27T23:21:43.575Z,50.53
2018-03-27T23:24:11.048Z,62.90
2018-03-27T23:26:38.501Z,58.53
2018-03-27T23:29:05.951Z,46.40
2018-03-27T23:31:33.444Z,53.80
2018-03-27T23:34:01.641Z,52.13
2018-03-27T23:36:29.502Z,52.63
2018-03-27T23:38:56.944Z,53.43
2018-03-27T23:41:25.159Z,50.40
2018-03-27T23:43:52.629Z,46.37
2018-03-27T23:46:20.078Z,47.67
2018-03-27T23:48:47.555Z,57.10
2018-03-27T23:51:15.005Z,49.57
2018-03-27T23:53:42.471Z,42.67
2018-03-27T23:56:09.949Z,43.50
2018-03-27T23:58:38.179Z,53.30
